sensor_id;sensor_type;location;lat;lon;timestamp;temperature;humidity
19870;DHT22;10097;50.862;4.696;2023-06-26T00:01:15;24.10;99.90
19870;DHT22;10097;50.862;4.696;2023-06-26T00:03:41;24.10;99.90
19870;DHT22;10097;50.862;4.696;2023-06-26T00:06:08;24.00;99.90
19870;DHT22;10097;50.862;4.696;2023-06-26T00:08:34;23.90;99.90
19870;DHT22;10097;50.862;4.696;2023-06-26T00:10:59;24.00;99.90
19870;DHT22;10097;50.862;4.696;2023-06-26T00:13:25;24.00;99.90
19870;DHT22;10097;50.862;4.696;2023-06-26T00:15:51;23.80;99.90
19870;DHT22;10097;50.862;4.696;2023-06-26T00:18:17;23.90;99.90
19870;DHT22;10097;50.862;4.696;2023-06-26T00:20:42;23.90;99.90
19870;DHT22;10097;50.862;4.696;2023-06-26T00:23:08;23.80;99.90
19870;DHT22;10097;50.862;4.696;2023-06-26T00:25:34;23.80;99.90
19870;DHT22;10097;50.862;4.696;2023-06-26T00:28:00;23.70;99.90
19870;DHT22;10097;50.862;4.696;2023-06-26T00:30:26;23.60;99.90
19870;DHT22;10097;50.862;4.696;2023-06-26T00:32:52;23.50;99.90
19870;DHT22;10097;50.862;4.696;2023-06-26T00:35:18;23.40;99.90
19870;DHT22;10097;50.862;4.696;2023-06-26T00:37:44;23.40;99.90
19870;DHT22;10097;50.862;4.696;2023-06-26T00:40:10;23.40;99.90
19870;DHT22;10097;50.862;4.696;2023-06-26T00:42:35;23.40;99.90
19870;DHT22;10097;50.862;4.696;2023-06-26T00:45:01;23.30;99.90
19870;DHT22;10097;50.862;4.696;2023-06-26T00:47:27;23.20;99.90
19870;DHT22;10097;50.862;4.696;2023-06-26T00:49:54;23.10;99.90
19870;DHT22;10097;50.862;4.696;2023-06-26T00:52:21;23.00;99.90
19870;DHT22;10097;50.862;4.696;2023-06-26T00:54:47;22.90;99.90
19870;DHT22;10097;50.862;4.696;2023-06-26T00:57:13;22.80;99.90
19870;DHT22;10097;50.862;4.696;2023-06-26T00:59:39;22.70;99.90
19870;DHT22;10097;50.862;4.696;2023-06-26T01:02:05;22.60;99.90
19870;DHT22;10097;50.862;4.696;2023-06-26T01:04:32;22.50;99.90
19870;DHT22;10097;50.862;4.696;2023-06-26T01:06:59;22.50;99.90
19870;DHT22;10097;50.862;4.696;2023-06-26T01:09:25;22.50;99.90
19870;DHT22;10097;50.862;4.696;2023-06-26T01:11:51;22.40;99.90
19870;DHT22;10097;50.862;4.696;2023-06-26T01:14:17;22.30;99.90
19870;DHT22;10097;50.862;4.696;2023-06-26T01:16:44;22.30;99.90
19870;DHT22;10097;50.862;4.696;2023-06-26T01:19:20;22.20;99.90
19870;DHT22;10097;50.862;4.696;2023-06-26T01:21:51;22.00;99.90
19870;DHT22;10097;50.862;4.696;2023-06-26T01:24:24;21.90;99.90
19870;DHT22;10097;50.862;4.696;2023-06-26T01:26:53;21.90;99.90
19870;DHT22;10097;50.862;4.696;2023-06-26T01:29:19;21.70;99.90
19870;DHT22;10097;50.862;4.696;2023-06-26T01:31:47;21.60;99.90
19870;DHT22;10097;50.862;4.696;2023-06-26T01:34:18;21.60;99.90
19870;DHT22;10097;50.862;4.696;2023-06-26T01:36:46;21.60;99.90
19870;DHT22;10097;50.862;4.696;2023-06-26T01:39:15;21.50;99.90
19870;DHT22;10097;50.862;4.696;2023-06-26T01:41:41;21.60;99.90
19870;DHT22;10097;50.862;4.696;2023-06-26T01:44:11;21.50;99.90
19870;DHT22;10097;50.862;4.696;2023-06-26T01:49:50;21.40;99.90
19870;DHT22;10097;50.862;4.696;2023-06-26T01:52:26;21.50;99.90
19870;DHT22;10097;50.862;4.696;2023-06-26T01:55:20;21.40;99.90
19870;DHT22;10097;50.862;4.696;2023-06-26T01:57:47;21.40;99.90
19870;DHT22;10097;50.862;4.696;2023-06-26T02:00:18;21.30;99.90
19870;DHT22;10097;50.862;4.696;2023-06-26T02:02:45;21.30;99.90
19870;DHT22;10097;50.862;4.696;2023-06-26T02:05:12;21.40;99.90
19870;DHT22;10097;50.862;4.696;2023-06-26T02:07:38;21.30;99.90
19870;DHT22;10097;50.862;4.696;2023-06-26T02:10:04;21.30;99.90
19870;DHT22;10097;50.862;4.696;2023-06-26T02:12:31;21.20;99.90
19870;DHT22;10097;50.862;4.696;2023-06-26T02:14:57;21.20;99.90
19870;DHT22;10097;50.862;4.696;2023-06-26T02:17:22;21.10;99.90
19870;DHT22;10097;50.862;4.696;2023-06-26T02:19:48;21.10;99.90
19870;DHT22;10097;50.862;4.696;2023-06-26T02:22:15;21.00;99.90
19870;DHT22;10097;50.862;4.696;2023-06-26T02:24:41;20.90;99.90
19870;DHT22;10097;50.862;4.696;2023-06-26T02:27:06;21.00;99.90
19870;DHT22;10097;50.862;4.696;2023-06-26T02:29:32;21.00;99.90
19870;DHT22;10097;50.862;4.696;2023-06-26T02:31:58;21.00;99.90
19870;DHT22;10097;50.862;4.696;2023-06-26T02:34:23;20.90;99.90
19870;DHT22;10097;50.862;4.696;2023-06-26T02:36:49;21.00;99.90
19870;DHT22;10097;50.862;4.696;2023-06-26T02:39:15;21.00;99.90
19870;DHT22;10097;50.862;4.696;2023-06-26T02:41:42;20.90;99.90
19870;DHT22;10097;50.862;4.696;2023-06-26T02:44:09;20.90;99.90
19870;DHT22;10097;50.862;4.696;2023-06-26T02:46:36;20.80;99.90
19870;DHT22;10097;50.862;4.696;2023-06-26T02:49:02;20.70;99.90
19870;DHT22;10097;50.862;4.696;2023-06-26T02:51:28;20.80;99.90
19870;DHT22;10097;50.862;4.696;2023-06-26T02:53:53;20.70;99.90
19870;DHT22;10097;50.862;4.696;2023-06-26T02:56:19;20.70;99.90
19870;DHT22;10097;50.862;4.696;2023-06-26T02:58:45;20.60;99.90
19870;DHT22;10097;50.862;4.696;2023-06-26T03:01:10;20.50;99.90
19870;DHT22;10097;50.862;4.696;2023-06-26T03:03:36;20.50;99.90
19870;DHT22;10097;50.862;4.696;2023-06-26T03:06:06;20.60;99.90
19870;DHT22;10097;50.862;4.696;2023-06-26T03:08:33;20.60;99.90
19870;DHT22;10097;50.862;4.696;2023-06-26T03:10:59;20.60;99.90
19870;DHT22;10097;50.862;4.696;2023-06-26T03:13:24;20.50;99.90
19870;DHT22;10097;50.862;4.696;2023-06-26T03:15:50;20.60;99.90
19870;DHT22;10097;50.862;4.696;2023-06-26T03:18:16;20.50;99.90
19870;DHT22;10097;50.862;4.696;2023-06-26T03:20:41;20.50;99.90
19870;DHT22;10097;50.862;4.696;2023-06-26T03:23:07;20.50;99.90
19870;DHT22;10097;50.862;4.696;2023-06-26T03:25:33;20.50;99.90
19870;DHT22;10097;50.862;4.696;2023-06-26T03:27:58;20.50;99.90
19870;DHT22;10097;50.862;4.696;2023-06-26T03:30:24;20.50;99.90
19870;DHT22;10097;50.862;4.696;2023-06-26T03:32:49;20.50;99.90
19870;DHT22;10097;50.862;4.696;2023-06-26T03:35:15;20.50;99.90
19870;DHT22;10097;50.862;4.696;2023-06-26T03:37:41;20.40;99.90
19870;DHT22;10097;50.862;4.696;2023-06-26T03:40:07;20.40;99.90
19870;DHT22;10097;50.862;4.696;2023-06-26T03:42:32;20.20;99.90
19870;DHT22;10097;50.862;4.696;2023-06-26T03:44:58;20.20;99.90
19870;DHT22;10097;50.862;4.696;2023-06-26T03:47:24;20.10;99.90
19870;DHT22;10097;50.862;4.696;2023-06-26T03:49:49;20.10;99.90
19870;DHT22;10097;50.862;4.696;2023-06-26T03:52:15;20.10;99.90
19870;DHT22;10097;50.862;4.696;2023-06-26T03:54:41;20.00;99.90
19870;DHT22;10097;50.862;4.696;2023-06-26T03:57:07;19.90;99.90
19870;DHT22;10097;50.862;4.696;2023-06-26T03:59:32;19.90;99.90
19870;DHT22;10097;50.862;4.696;2023-06-26T04:01:58;19.90;99.90
19870;DHT22;10097;50.862;4.696;2023-06-26T04:04:24;20.10;99.90
19870;DHT22;10097;50.862;4.696;2023-06-26T04:06:49;20.00;99.90
19870;DHT22;10097;50.862;4.696;2023-06-26T04:09:16;19.90;99.90
19870;DHT22;10097;50.862;4.696;2023-06-26T04:11:42;19.90;99.90
19870;DHT22;10097;50.862;4.696;2023-06-26T04:14:08;20.00;99.90
19870;DHT22;10097;50.862;4.696;2023-06-26T04:16:33;19.90;99.90
19870;DHT22;10097;50.862;4.696;2023-06-26T04:18:59;19.90;99.90
19870;DHT22;10097;50.862;4.696;2023-06-26T04:21:24;19.80;99.90
19870;DHT22;10097;50.862;4.696;2023-06-26T04:23:50;19.80;99.90
19870;DHT22;10097;50.862;4.696;2023-06-26T04:26:16;19.70;99.90
19870;DHT22;10097;50.862;4.696;2023-06-26T04:28:42;19.70;99.90
19870;DHT22;10097;50.862;4.696;2023-06-26T04:31:08;19.70;99.90
19870;DHT22;10097;50.862;4.696;2023-06-26T04:33:35;19.80;99.90
19870;DHT22;10097;50.862;4.696;2023-06-26T04:36:04;19.80;99.90
19870;DHT22;10097;50.862;4.696;2023-06-26T04:38:31;19.80;99.90
19870;DHT22;10097;50.862;4.696;2023-06-26T04:40:57;19.90;99.90
19870;DHT22;10097;50.862;4.696;2023-06-26T04:43:22;19.80;99.90
19870;DHT22;10097;50.862;4.696;2023-06-26T04:45:48;19.70;99.90
19870;DHT22;10097;50.862;4.696;2023-06-26T04:48:14;19.70;99.90
19870;DHT22;10097;50.862;4.696;2023-06-26T04:50:40;19.60;99.90
19870;DHT22;10097;50.862;4.696;2023-06-26T04:53:06;19.60;99.90
19870;DHT22;10097;50.862;4.696;2023-06-26T04:55:31;19.70;99.90
19870;DHT22;10097;50.862;4.696;2023-06-26T04:57:57;19.50;99.90
19870;DHT22;10097;50.862;4.696;2023-06-26T05:00:23;19.60;99.90
19870;DHT22;10097;50.862;4.696;2023-06-26T05:02:51;19.50;99.90
19870;DHT22;10097;50.862;4.696;2023-06-26T05:05:27;19.50;99.90
19870;DHT22;10097;50.862;4.696;2023-06-26T05:07:56;19.50;99.90
19870;DHT22;10097;50.862;4.696;2023-06-26T05:10:22;19.50;99.90
19870;DHT22;10097;50.862;4.696;2023-06-26T05:12:48;19.60;99.90
19870;DHT22;10097;50.862;4.696;2023-06-26T05:15:14;19.60;99.90
19870;DHT22;10097;50.862;4.696;2023-06-26T05:17:40;19.60;99.90
19870;DHT22;10097;50.862;4.696;2023-06-26T05:20:06;19.50;99.90
19870;DHT22;10097;50.862;4.696;2023-06-26T05:22:33;19.50;99.90
19870;DHT22;10097;50.862;4.696;2023-06-26T05:25:02;19.50;99.90
19870;DHT22;10097;50.862;4.696;2023-06-26T05:27:28;19.50;99.90
19870;DHT22;10097;50.862;4.696;2023-06-26T05:29:55;19.40;99.90
19870;DHT22;10097;50.862;4.696;2023-06-26T05:32:21;19.40;99.90
19870;DHT22;10097;50.862;4.696;2023-06-26T05:34:47;19.40;99.90
19870;DHT22;10097;50.862;4.696;2023-06-26T05:37:21;19.40;99.90
19870;DHT22;10097;50.862;4.696;2023-06-26T05:39:47;19.40;99.90
19870;DHT22;10097;50.862;4.696;2023-06-26T05:42:13;19.40;99.90
19870;DHT22;10097;50.862;4.696;2023-06-26T05:44:39;19.40;99.90
19870;DHT22;10097;50.862;4.696;2023-06-26T05:47:05;19.40;99.90
19870;DHT22;10097;50.862;4.696;2023-06-26T05:49:31;19.40;99.90
19870;DHT22;10097;50.862;4.696;2023-06-26T05:51:56;19.20;99.90
19870;DHT22;10097;50.862;4.696;2023-06-26T05:54:24;19.10;99.90
19870;DHT22;10097;50.862;4.696;2023-06-26T05:56:53;19.20;99.90
19870;DHT22;10097;50.862;4.696;2023-06-26T05:59:22;19.20;99.90
19870;DHT22;10097;50.862;4.696;2023-06-26T06:01:48;19.30;99.90
19870;DHT22;10097;50.862;4.696;2023-06-26T06:04:13;19.20;99.90
19870;DHT22;10097;50.862;4.696;2023-06-26T06:06:39;19.20;99.90
19870;DHT22;10097;50.862;4.696;2023-06-26T06:09:05;19.30;99.90
19870;DHT22;10097;50.862;4.696;2023-06-26T06:11:31;19.30;99.90
19870;DHT22;10097;50.862;4.696;2023-06-26T06:13:57;19.30;99.90
19870;DHT22;10097;50.862;4.696;2023-06-26T06:16:24;19.40;99.90
19870;DHT22;10097;50.862;4.696;2023-06-26T06:18:50;19.50;99.90
19870;DHT22;10097;50.862;4.696;2023-06-26T06:21:15;19.50;99.90
19870;DHT22;10097;50.862;4.696;2023-06-26T06:23:41;19.60;99.90
19870;DHT22;10097;50.862;4.696;2023-06-26T06:26:06;19.70;99.90
19870;DHT22;10097;50.862;4.696;2023-06-26T06:28:32;19.80;99.90
19870;DHT22;10097;50.862;4.696;2023-06-26T06:30:58;20.00;99.90
19870;DHT22;10097;50.862;4.696;2023-06-26T06:33:23;20.00;99.90
19870;DHT22;10097;50.862;4.696;2023-06-26T06:35:49;20.10;99.90
19870;DHT22;10097;50.862;4.696;2023-06-26T06:38:15;20.10;99.90
19870;DHT22;10097;50.862;4.696;2023-06-26T06:40:40;20.00;99.90
19870;DHT22;10097;50.862;4.696;2023-06-26T06:43:06;20.00;99.90
19870;DHT22;10097;50.862;4.696;2023-06-26T06:45:31;20.10;99.90
19870;DHT22;10097;50.862;4.696;2023-06-26T06:47:57;20.00;99.90
19870;DHT22;10097;50.862;4.696;2023-06-26T06:50:23;20.00;99.90
19870;DHT22;10097;50.862;4.696;2023-06-26T06:52:48;20.00;99.90
19870;DHT22;10097;50.862;4.696;2023-06-26T06:55:14;20.10;99.90
19870;DHT22;10097;50.862;4.696;2023-06-26T06:57:40;20.20;99.90
19870;DHT22;10097;50.862;4.696;2023-06-26T07:00:07;20.20;99.90
19870;DHT22;10097;50.862;4.696;2023-06-26T07:02:37;20.30;99.90
19870;DHT22;10097;50.862;4.696;2023-06-26T07:05:04;20.40;99.90
19870;DHT22;10097;50.862;4.696;2023-06-26T07:07:31;20.30;99.90
19870;DHT22;10097;50.862;4.696;2023-06-26T07:10:02;20.30;99.90
19870;DHT22;10097;50.862;4.696;2023-06-26T07:12:28;20.40;99.90
19870;DHT22;10097;50.862;4.696;2023-06-26T07:14:55;20.40;99.90
19870;DHT22;10097;50.862;4.696;2023-06-26T07:17:21;20.50;99.90
19870;DHT22;10097;50.862;4.696;2023-06-26T07:19:48;20.60;99.90
19870;DHT22;10097;50.862;4.696;2023-06-26T07:22:13;20.60;99.90
19870;DHT22;10097;50.862;4.696;2023-06-26T07:24:39;20.60;99.90
19870;DHT22;10097;50.862;4.696;2023-06-26T07:27:05;20.60;99.90
19870;DHT22;10097;50.862;4.696;2023-06-26T07:29:31;20.80;99.90
19870;DHT22;10097;50.862;4.696;2023-06-26T07:31:56;20.90;99.90
19870;DHT22;10097;50.862;4.696;2023-06-26T07:34:23;20.90;99.90
19870;DHT22;10097;50.862;4.696;2023-06-26T07:36:49;20.90;99.90
19870;DHT22;10097;50.862;4.696;2023-06-26T07:39:15;20.90;99.90
19870;DHT22;10097;50.862;4.696;2023-06-26T07:41:40;20.90;99.90
19870;DHT22;10097;50.862;4.696;2023-06-26T07:44:06;20.90;99.90
19870;DHT22;10097;50.862;4.696;2023-06-26T07:46:32;21.00;99.90
19870;DHT22;10097;50.862;4.696;2023-06-26T07:48:57;21.10;99.90
19870;DHT22;10097;50.862;4.696;2023-06-26T07:51:23;21.00;99.90
19870;DHT22;10097;50.862;4.696;2023-06-26T07:53:49;21.00;99.90
19870;DHT22;10097;50.862;4.696;2023-06-26T07:56:15;21.20;99.90
19870;DHT22;10097;50.862;4.696;2023-06-26T07:58:40;21.30;99.90
19870;DHT22;10097;50.862;4.696;2023-06-26T08:01:06;21.40;99.90
19870;DHT22;10097;50.862;4.696;2023-06-26T08:03:31;21.50;99.90
19870;DHT22;10097;50.862;4.696;2023-06-26T08:05:57;21.60;99.90
19870;DHT22;10097;50.862;4.696;2023-06-26T08:08:23;21.60;99.90
19870;DHT22;10097;50.862;4.696;2023-06-26T08:10:48;21.60;99.90
19870;DHT22;10097;50.862;4.696;2023-06-26T08:13:14;21.50;99.90
19870;DHT22;10097;50.862;4.696;2023-06-26T08:15:40;21.50;99.90
19870;DHT22;10097;50.862;4.696;2023-06-26T08:18:05;21.60;99.90
19870;DHT22;10097;50.862;4.696;2023-06-26T08:20:31;21.80;99.90
19870;DHT22;10097;50.862;4.696;2023-06-26T08:22:56;21.90;99.90
19870;DHT22;10097;50.862;4.696;2023-06-26T08:25:22;21.80;99.90
19870;DHT22;10097;50.862;4.696;2023-06-26T08:27:48;21.80;99.90
19870;DHT22;10097;50.862;4.696;2023-06-26T08:30:13;21.80;99.90
19870;DHT22;10097;50.862;4.696;2023-06-26T08:32:39;21.80;99.90
19870;DHT22;10097;50.862;4.696;2023-06-26T08:35:06;21.90;99.90
19870;DHT22;10097;50.862;4.696;2023-06-26T08:37:32;22.10;99.90
19870;DHT22;10097;50.862;4.696;2023-06-26T08:39:59;22.20;99.90
19870;DHT22;10097;50.862;4.696;2023-06-26T08:42:25;22.30;99.90
19870;DHT22;10097;50.862;4.696;2023-06-26T08:44:51;22.50;99.90
19870;DHT22;10097;50.862;4.696;2023-06-26T08:47:18;22.60;99.90
19870;DHT22;10097;50.862;4.696;2023-06-26T08:52:33;22.60;99.90
19870;DHT22;10097;50.862;4.696;2023-06-26T08:55:02;22.50;99.90
19870;DHT22;10097;50.862;4.696;2023-06-26T08:57:32;22.40;99.90
19870;DHT22;10097;50.862;4.696;2023-06-26T08:59:58;22.40;99.90
19870;DHT22;10097;50.862;4.696;2023-06-26T09:02:23;22.40;99.90
19870;DHT22;10097;50.862;4.696;2023-06-26T09:04:50;22.50;99.90
19870;DHT22;10097;50.862;4.696;2023-06-26T09:07:16;22.40;99.90
19870;DHT22;10097;50.862;4.696;2023-06-26T09:09:42;22.60;99.90
19870;DHT22;10097;50.862;4.696;2023-06-26T09:12:08;22.80;99.90
19870;DHT22;10097;50.862;4.696;2023-06-26T09:14:37;23.10;99.90
19870;DHT22;10097;50.862;4.696;2023-06-26T09:17:03;23.00;99.90
19870;DHT22;10097;50.862;4.696;2023-06-26T09:19:30;22.90;99.90
19870;DHT22;10097;50.862;4.696;2023-06-26T09:21:55;23.20;99.90
19870;DHT22;10097;50.862;4.696;2023-06-26T09:24:22;23.40;99.90
19870;DHT22;10097;50.862;4.696;2023-06-26T09:26:49;23.40;99.90
19870;DHT22;10097;50.862;4.696;2023-06-26T09:29:17;23.20;99.90
19870;DHT22;10097;50.862;4.696;2023-06-26T09:31:44;23.10;99.90
19870;DHT22;10097;50.862;4.696;2023-06-26T09:34:10;23.00;99.90
19870;DHT22;10097;50.862;4.696;2023-06-26T09:36:36;23.30;99.90
19870;DHT22;10097;50.862;4.696;2023-06-26T09:39:08;23.50;99.90
19870;DHT22;10097;50.862;4.696;2023-06-26T09:41:37;23.50;99.90
19870;DHT22;10097;50.862;4.696;2023-06-26T09:44:06;23.30;99.90
19870;DHT22;10097;50.862;4.696;2023-06-26T09:46:33;23.40;99.90
19870;DHT22;10097;50.862;4.696;2023-06-26T09:49:10;23.60;99.90
19870;DHT22;10097;50.862;4.696;2023-06-26T09:51:37;23.80;99.90
19870;DHT22;10097;50.862;4.696;2023-06-26T09:54:04;23.80;99.90
19870;DHT22;10097;50.862;4.696;2023-06-26T09:56:31;23.80;99.90
19870;DHT22;10097;50.862;4.696;2023-06-26T09:59:03;24.00;99.90
19870;DHT22;10097;50.862;4.696;2023-06-26T10:01:30;24.20;99.90
19870;DHT22;10097;50.862;4.696;2023-06-26T10:03:56;23.90;99.90
19870;DHT22;10097;50.862;4.696;2023-06-26T10:06:27;23.90;99.90
19870;DHT22;10097;50.862;4.696;2023-06-26T10:08:55;24.00;99.90
19870;DHT22;10097;50.862;4.696;2023-06-26T10:11:22;23.80;99.90
19870;DHT22;10097;50.862;4.696;2023-06-26T10:13:51;23.70;99.90
19870;DHT22;10097;50.862;4.696;2023-06-26T10:16:23;23.90;99.90
19870;DHT22;10097;50.862;4.696;2023-06-26T10:18:51;23.80;99.90
19870;DHT22;10097;50.862;4.696;2023-06-26T10:21:19;24.00;99.90
19870;DHT22;10097;50.862;4.696;2023-06-26T10:23:46;24.30;99.90
19870;DHT22;10097;50.862;4.696;2023-06-26T10:26:12;24.30;99.90
19870;DHT22;10097;50.862;4.696;2023-06-26T10:28:38;24.30;99.90
19870;DHT22;10097;50.862;4.696;2023-06-26T10:31:07;24.20;99.90
19870;DHT22;10097;50.862;4.696;2023-06-26T10:33:35;23.90;99.90
19870;DHT22;10097;50.862;4.696;2023-06-26T10:36:15;23.80;99.90
19870;DHT22;10097;50.862;4.696;2023-06-26T10:38:51;23.90;99.90
19870;DHT22;10097;50.862;4.696;2023-06-26T10:41:22;23.90;99.90
19870;DHT22;10097;50.862;4.696;2023-06-26T10:44:05;24.20;99.90
19870;DHT22;10097;50.862;4.696;2023-06-26T10:46:51;24.40;99.90
19870;DHT22;10097;50.862;4.696;2023-06-26T10:49:28;24.60;99.90
19870;DHT22;10097;50.862;4.696;2023-06-26T10:51:54;24.50;99.90
19870;DHT22;10097;50.862;4.696;2023-06-26T10:54:21;24.30;99.90
19870;DHT22;10097;50.862;4.696;2023-06-26T10:56:49;23.80;99.90
19870;DHT22;10097;50.862;4.696;2023-06-26T10:59:20;23.80;99.90
19870;DHT22;10097;50.862;4.696;2023-06-26T11:04:38;24.00;99.90
19870;DHT22;10097;50.862;4.696;2023-06-26T11:07:23;24.30;99.90
19870;DHT22;10097;50.862;4.696;2023-06-26T11:10:09;24.90;99.90
19870;DHT22;10097;50.862;4.696;2023-06-26T11:15:01;25.80;99.90
19870;DHT22;10097;50.862;4.696;2023-06-26T11:17:27;26.30;99.90
19870;DHT22;10097;50.862;4.696;2023-06-26T11:19:55;26.80;99.90
19870;DHT22;10097;50.862;4.696;2023-06-26T11:22:23;27.50;99.90
19870;DHT22;10097;50.862;4.696;2023-06-26T11:24:53;28.20;99.90
19870;DHT22;10097;50.862;4.696;2023-06-26T11:27:19;28.50;99.90
19870;DHT22;10097;50.862;4.696;2023-06-26T11:29:48;28.30;99.90
19870;DHT22;10097;50.862;4.696;2023-06-26T11:32:15;27.50;99.90
19870;DHT22;10097;50.862;4.696;2023-06-26T11:34:40;28.40;99.90
19870;DHT22;10097;50.862;4.696;2023-06-26T11:37:08;28.00;99.90
19870;DHT22;10097;50.862;4.696;2023-06-26T11:39:34;27.20;99.90
19870;DHT22;10097;50.862;4.696;2023-06-26T11:42:02;26.50;99.90
19870;DHT22;10097;50.862;4.696;2023-06-26T11:44:31;26.00;99.90
19870;DHT22;10097;50.862;4.696;2023-06-26T11:46:57;26.10;99.90
19870;DHT22;10097;50.862;4.696;2023-06-26T11:49:23;25.80;99.90
19870;DHT22;10097;50.862;4.696;2023-06-26T11:51:51;25.60;99.90
19870;DHT22;10097;50.862;4.696;2023-06-26T11:54:26;25.60;99.90
19870;DHT22;10097;50.862;4.696;2023-06-26T11:56:57;26.20;99.90
19870;DHT22;10097;50.862;4.696;2023-06-26T11:59:32;26.20;99.90
19870;DHT22;10097;50.862;4.696;2023-06-26T12:01:58;25.80;99.90
19870;DHT22;10097;50.862;4.696;2023-06-26T12:04:24;25.60;99.90
19870;DHT22;10097;50.862;4.696;2023-06-26T12:06:52;25.20;99.90
19870;DHT22;10097;50.862;4.696;2023-06-26T12:09:22;25.00;99.90
19870;DHT22;10097;50.862;4.696;2023-06-26T12:11:53;25.30;99.90
19870;DHT22;10097;50.862;4.696;2023-06-26T12:14:20;25.50;99.90
19870;DHT22;10097;50.862;4.696;2023-06-26T12:16:47;26.00;99.90
19870;DHT22;10097;50.862;4.696;2023-06-26T12:19:13;27.20;99.90
19870;DHT22;10097;50.862;4.696;2023-06-26T12:24:16;27.50;99.90
19870;DHT22;10097;50.862;4.696;2023-06-26T12:26:47;27.10;99.90
19870;DHT22;10097;50.862;4.696;2023-06-26T12:29:16;26.70;99.90
19870;DHT22;10097;50.862;4.696;2023-06-26T12:31:50;26.10;99.90
19870;DHT22;10097;50.862;4.696;2023-06-26T12:34:27;25.90;99.90
19870;DHT22;10097;50.862;4.696;2023-06-26T12:36:52;25.90;99.90
19870;DHT22;10097;50.862;4.696;2023-06-26T12:39:21;26.20;99.90
19870;DHT22;10097;50.862;4.696;2023-06-26T12:42:02;26.60;99.90
19870;DHT22;10097;50.862;4.696;2023-06-26T12:44:29;27.10;99.90
19870;DHT22;10097;50.862;4.696;2023-06-26T12:46:57;27.80;99.40
19870;DHT22;10097;50.862;4.696;2023-06-26T12:49:40;27.50;98.80
19870;DHT22;10097;50.862;4.696;2023-06-26T12:52:11;27.50;98.10
19870;DHT22;10097;50.862;4.696;2023-06-26T12:54:39;27.50;97.90
19870;DHT22;10097;50.862;4.696;2023-06-26T12:57:05;28.10;98.30
19870;DHT22;10097;50.862;4.696;2023-06-26T12:59:32;28.30;95.20
19870;DHT22;10097;50.862;4.696;2023-06-26T13:01:59;28.10;95.20
19870;DHT22;10097;50.862;4.696;2023-06-26T13:04:24;28.40;94.90
19870;DHT22;10097;50.862;4.696;2023-06-26T13:06:51;28.60;94.60
19870;DHT22;10097;50.862;4.696;2023-06-26T13:09:17;28.60;93.90
19870;DHT22;10097;50.862;4.696;2023-06-26T13:11:43;27.60;94.30
19870;DHT22;10097;50.862;4.696;2023-06-26T13:14:08;26.60;95.90
19870;DHT22;10097;50.862;4.696;2023-06-26T13:16:34;26.40;97.40
19870;DHT22;10097;50.862;4.696;2023-06-26T13:19:00;27.00;97.20
19870;DHT22;10097;50.862;4.696;2023-06-26T13:21:27;27.10;95.70
19870;DHT22;10097;50.862;4.696;2023-06-26T13:23:53;26.90;95.70
19870;DHT22;10097;50.862;4.696;2023-06-26T13:26:20;26.70;95.20
19870;DHT22;10097;50.862;4.696;2023-06-26T13:28:47;25.90;96.00
19870;DHT22;10097;50.862;4.696;2023-06-26T13:31:13;25.80;98.00
19870;DHT22;10097;50.862;4.696;2023-06-26T13:33:39;25.80;98.00
19870;DHT22;10097;50.862;4.696;2023-06-26T13:36:05;25.80;97.90
19870;DHT22;10097;50.862;4.696;2023-06-26T13:38:33;26.80;97.40
19870;DHT22;10097;50.862;4.696;2023-06-26T13:40:59;28.30;95.80
19870;DHT22;10097;50.862;4.696;2023-06-26T13:43:26;29.00;93.50
19870;DHT22;10097;50.862;4.696;2023-06-26T13:45:52;29.30;92.50
19870;DHT22;10097;50.862;4.696;2023-06-26T13:48:18;29.60;91.50
19870;DHT22;10097;50.862;4.696;2023-06-26T13:50:45;30.00;90.60
19870;DHT22;10097;50.862;4.696;2023-06-26T13:53:11;29.20;91.60
19870;DHT22;10097;50.862;4.696;2023-06-26T13:55:37;29.00;91.30
19870;DHT22;10097;50.862;4.696;2023-06-26T13:58:04;28.40;94.10
19870;DHT22;10097;50.862;4.696;2023-06-26T14:00:32;28.90;92.50
19870;DHT22;10097;50.862;4.696;2023-06-26T14:03:01;28.60;92.00
19870;DHT22;10097;50.862;4.696;2023-06-26T14:05:31;28.40;92.30
19870;DHT22;10097;50.862;4.696;2023-06-26T14:07:56;28.40;93.00
19870;DHT22;10097;50.862;4.696;2023-06-26T14:10:22;28.80;91.80
19870;DHT22;10097;50.862;4.696;2023-06-26T14:12:49;29.30;92.00
19870;DHT22;10097;50.862;4.696;2023-06-26T14:15:15;29.10;90.70
19870;DHT22;10097;50.862;4.696;2023-06-26T14:20:48;29.00;90.30
19870;DHT22;10097;50.862;4.696;2023-06-26T14:23:14;28.30;90.90
19870;DHT22;10097;50.862;4.696;2023-06-26T14:25:40;28.10;91.80
19870;DHT22;10097;50.862;4.696;2023-06-26T14:28:06;28.00;92.40
19870;DHT22;10097;50.862;4.696;2023-06-26T14:30:31;28.00;91.50
19870;DHT22;10097;50.862;4.696;2023-06-26T14:32:57;27.30;91.80
19870;DHT22;10097;50.862;4.696;2023-06-26T14:35:22;26.80;92.40
19870;DHT22;10097;50.862;4.696;2023-06-26T14:37:48;26.80;93.00
19870;DHT22;10097;50.862;4.696;2023-06-26T14:40:14;26.90;92.30
19870;DHT22;10097;50.862;4.696;2023-06-26T14:42:40;27.00;92.30
19870;DHT22;10097;50.862;4.696;2023-06-26T14:45:08;26.90;93.20
19870;DHT22;10097;50.862;4.696;2023-06-26T14:47:34;26.60;94.40
19870;DHT22;10097;50.862;4.696;2023-06-26T14:50:01;26.60;94.20
19870;DHT22;10097;50.862;4.696;2023-06-26T14:52:27;26.40;94.60
19870;DHT22;10097;50.862;4.696;2023-06-26T14:54:52;27.10;93.80
19870;DHT22;10097;50.862;4.696;2023-06-26T14:57:18;27.20;93.90
19870;DHT22;10097;50.862;4.696;2023-06-26T14:59:44;27.50;93.60
19870;DHT22;10097;50.862;4.696;2023-06-26T15:02:09;27.50;93.50
19870;DHT22;10097;50.862;4.696;2023-06-26T15:04:35;27.10;93.50
19870;DHT22;10097;50.862;4.696;2023-06-26T15:07:01;27.30;93.50
19870;DHT22;10097;50.862;4.696;2023-06-26T15:09:26;27.20;92.80
19870;DHT22;10097;50.862;4.696;2023-06-26T15:11:52;26.90;93.50
19870;DHT22;10097;50.862;4.696;2023-06-26T15:14:17;26.60;94.00
19870;DHT22;10097;50.862;4.696;2023-06-26T15:16:43;26.80;94.00
19870;DHT22;10097;50.862;4.696;2023-06-26T15:19:09;27.60;93.30
19870;DHT22;10097;50.862;4.696;2023-06-26T15:21:35;27.50;92.50
19870;DHT22;10097;50.862;4.696;2023-06-26T15:24:00;27.50;92.60
19870;DHT22;10097;50.862;4.696;2023-06-26T15:26:26;27.30;92.90
19870;DHT22;10097;50.862;4.696;2023-06-26T15:28:52;27.10;93.10
19870;DHT22;10097;50.862;4.696;2023-06-26T15:31:20;26.90;93.40
19870;DHT22;10097;50.862;4.696;2023-06-26T15:33:45;26.40;94.10
19870;DHT22;10097;50.862;4.696;2023-06-26T15:36:11;26.20;94.70
19870;DHT22;10097;50.862;4.696;2023-06-26T15:38:37;26.00;94.50
19870;DHT22;10097;50.862;4.696;2023-06-26T15:41:03;25.80;95.70
19870;DHT22;10097;50.862;4.696;2023-06-26T15:43:28;26.00;95.70
19870;DHT22;10097;50.862;4.696;2023-06-26T15:45:54;25.80;95.10